x

Ilm2 - 5 Miles Se Of Wrightsville Beach, Nc (41038) Weather Station

9:08pm - Wed 22nd Mar 2017 All times are EDT. -4 hours from GMT.

  • Wind
    20mph, 34mph gusts
  • Sea Temp 57°f
  • 空気 Temp 53°f
  • Sea Pressure 1026.2mb
  • Ilm2 - 5 Miles Se Of Wrightsville Beach, Nc
  • Ilm2 - 5 Miles Se Of Wrightsville Beach, Nc

More Historic Weather Station data

Upgrade to MSW Pro to gain access to the past 30 days of data for over 8000 Wavebouys and Weather Stations around the globe.

Join Pro

Comparision Forecast

View Surf forecast
   
Wed 03/22 9:08pm 20 34 mph 1026.2mb 57f 53f
8:08pm 20 34 mph 1024.7mb 57f 54f
7:08pm 20 36 mph 1023.3mb 57f 55f
6:08pm 16 27 mph 1022.1mb 57f 57f
5:08pm 16 27 mph 1021.1mb 57f 57f
4:08pm 16 25 mph 1020.3mb 57f 58f
3:08pm 11 16 mph 1019.6mb 57f 58f
2:08pm 13 25 mph 1019.4mb 57f 58f
1:08pm 11 20 mph 1018.9mb 57f 58f
12:08pm 11 18 mph 1018.4mb 56f 57f
11:08am 16 25 mph 1017.5mb 56f 56f
10:08am 13 22 mph 1016.4mb 56f 57f
9:08am 9 16 mph 1015mb 56f 58f
8:08am 2 7 mph 1013.5mb 56f 58f
7:08am 4 9 mph 1011.8mb 56f 58f
6:08am 2 4 mph 1010.9mb 56f 58f
5:08am 4 9 mph 1010.4mb 56f 58f
4:08am 4 9 mph 1011.3mb 56f 60f
3:08am 13 22 mph 1011.5mb 56f 62f
2:08am 18 29 mph 1011.6mb 56f 64f
1:08am 11 20 mph 1011.1mb 56f 60f
12:08am 9 16 mph 1011.7mb 56f 58f
Tue 03/21 11:08pm 9 16 mph 1012.1mb 56f 58f
10:08pm 11 16 mph 1012.9mb 56f 59f
9:08pm 11 18 mph 1012.8mb 56f 59f
8:08pm 11 18 mph 1012.5mb 56f 59f
7:08pm 16 22 mph 1012.1mb 56f 60f
6:08pm 13 22 mph 1012.3mb 56f 60f
5:08pm 13 25 mph 1012.3mb 56f 60f
4:08pm 13 22 mph 1012.7mb 56f 60f
3:08pm 13 25 mph 1013.1mb 56f 60f
2:08pm 13 20 mph 1013.9mb 56f 59f
1:08pm 13 18 mph 1014.6mb 56f 59f
12:08pm 11 22 mph 1015.2mb 56f 59f
11:08am 13 22 mph 1015.4mb 56f 58f
9:08am 13 25 mph 1016.1mb 56f 58f
8:08am 20 25 mph 1015.8mb 56f 58f
7:08am 13 22 mph 1016mb 56f 58f
6:08am 11 20 mph 1016mb 56f 57f
5:08am 13 22 mph 1016.4mb 56f 57f
4:08am 11 18 mph 1017.1mb 56f 56f
3:08am 9 16 mph 1017.8mb 56f 56f
2:08am 11 16 mph 1018.5mb 56f 56f
1:08am 11 16 mph 1019mb 56f 56f
12:08am 11 13 mph 1019.9mb 56f 56f
Mon 03/20 11:08pm 11 16 mph 1019.9mb 56f 56f
10:08pm 11 18 mph 1019.9mb 56f 56f
9:08pm 13 22 mph 1019.4mb 56f 55f
8:08pm 13 25 mph 1019.5mb 56f 55f
7:08pm 20 27 mph 1019.2mb 56f 55f
6:08pm 16 25 mph 1019.7mb 56f 53f
5:08pm 16 25 mph 1020.4mb 57f 52f
4:08pm 13 25 mph 1020.8mb 57f 51f
3:08pm 13 20 mph 1021.2mb 57f 51f
2:08pm 9 13 mph 1022.1mb 57f 50f
1:08pm 4 7 mph 1023.8mb 57f 49f
12:08pm 7 11 mph 1023.9mb 57f 48f
11:08am 11 18 mph 1024mb 57f 48f
10:08am 16 22 mph 1024.3mb 57f 47f
9:08am 16 25 mph 1024.3mb 56f 46f
8:08am 16 22 mph 1023.9mb 56f 46f
7:08am 16 22 mph 1023.4mb 56f 46f
6:08am 13 20 mph 1022.9mb 56f 46f
5:08am 13 18 mph 1022.7mb 56f 47f
4:08am 13 18 mph 1022.8mb 56f 48f
3:08am 16 20 mph 1023mb 56f 49f
2:08am 13 20 mph 1023.4mb 56f 50f
1:08am 13 20 mph 1023.6mb 56f 50f
12:08am 13 22 mph 1023.7mb 56f 50f
Sun 03/19 11:08pm 16 22 mph 1023.6mb 56f 50f
10:08pm 16 27 mph 1023.7mb 56f 50f
9:08pm 20 29 mph 1023.2mb 56f 51f
8:08pm 16 27 mph 1022.7mb 56f 52f
7:08pm 16 27 mph 1021.9mb 56f 53f
6:08pm 20 36 mph 1021mb 55f 53f
5:08pm 18 34 mph 1020.7mb 55f 53f
4:08pm 20 36 mph 1020.5mb 55f 52f
3:08pm 20 36 mph 1020.6mb 55f 52f
2:08pm 20 40 mph 1020.5mb 55f 52f
1:08pm 20 40 mph 1020.8mb 55f 51f
12:08pm 18 31 mph 1020.5mb 55f 51f
11:08am 20 34 mph 1020.2mb 55f 50f
10:08am 20 34 mph 1019.4mb 55f 49f
9:08am 20 36 mph 1018.7mb 55f 48f
8:08am 18 34 mph 1018.1mb 55f 47f
7:08am 18 34 mph 1017.2mb 55f 48f
6:08am 18 34 mph 1016.4mb 55f 49f
5:08am 18 31 mph 1015.6mb 55f 51f
4:08am 18 31 mph 1015mb 55f 53f
3:08am 20 29 mph 1014.2mb 55f 55f